sensor_id;sensor_type;location;lat;lon;timestamp;P1;durP1;ratioP1;P2;durP2;ratioP2
76786;SDS011;65739;51.482;5.702;2023-07-13T00:02:22;4.35;;;1.58;;
76786;SDS011;65739;51.482;5.702;2023-07-13T00:04:48;10.55;;;1.73;;
76786;SDS011;65739;51.482;5.702;2023-07-13T00:07:14;10.20;;;1.77;;
76786;SDS011;65739;51.482;5.702;2023-07-13T00:09:39;7.60;;;1.65;;
76786;SDS011;65739;51.482;5.702;2023-07-13T00:12:19;6.72;;;1.77;;
76786;SDS011;65739;51.482;5.702;2023-07-13T00:14:58;7.38;;;1.77;;
76786;SDS011;65739;51.482;5.702;2023-07-13T00:17:25;6.47;;;1.70;;
76786;SDS011;65739;51.482;5.702;2023-07-13T00:19:52;7.80;;;1.55;;
76786;SDS011;65739;51.482;5.702;2023-07-13T00:22:18;9.65;;;1.60;;
76786;SDS011;65739;51.482;5.702;2023-07-13T00:24:44;8.15;;;1.67;;
76786;SDS011;65739;51.482;5.702;2023-07-13T00:27:10;5.47;;;1.70;;
76786;SDS011;65739;51.482;5.702;2023-07-13T00:29:36;9.10;;;1.67;;
76786;SDS011;65739;51.482;5.702;2023-07-13T00:32:03;7.13;;;1.30;;
76786;SDS011;65739;51.482;5.702;2023-07-13T00:34:30;8.20;;;1.40;;
76786;SDS011;65739;51.482;5.702;2023-07-13T00:36:56;5.90;;;1.40;;
76786;SDS011;65739;51.482;5.702;2023-07-13T00:39:21;5.35;;;1.60;;
76786;SDS011;65739;51.482;5.702;2023-07-13T00:41:47;4.85;;;1.63;;
76786;SDS011;65739;51.482;5.702;2023-07-13T00:44:14;6.63;;;1.30;;
76786;SDS011;65739;51.482;5.702;2023-07-13T00:46:40;10.48;;;1.75;;
76786;SDS011;65739;51.482;5.702;2023-07-13T00:49:07;5.60;;;1.60;;
76786;SDS011;65739;51.482;5.702;2023-07-13T00:51:36;8.05;;;2.00;;
76786;SDS011;65739;51.482;5.702;2023-07-13T00:54:21;7.32;;;1.65;;
76786;SDS011;65739;51.482;5.702;2023-07-13T00:56:52;3.55;;;1.48;;
76786;SDS011;65739;51.482;5.702;2023-07-13T00:59:20;6.38;;;1.55;;
76786;SDS011;65739;51.482;5.702;2023-07-13T01:01:47;9.30;;;2.20;;
76786;SDS011;65739;51.482;5.702;2023-07-13T01:04:13;6.18;;;1.70;;
76786;SDS011;65739;51.482;5.702;2023-07-13T01:06:39;5.65;;;1.70;;
76786;SDS011;65739;51.482;5.702;2023-07-13T01:09:06;5.32;;;1.80;;
76786;SDS011;65739;51.482;5.702;2023-07-13T01:11:33;10.80;;;2.00;;
76786;SDS011;65739;51.482;5.702;2023-07-13T01:13:59;8.43;;;2.13;;
76786;SDS011;65739;51.482;5.702;2023-07-13T01:16:28;4.80;;;1.90;;
76786;SDS011;65739;51.482;5.702;2023-07-13T01:18:56;8.18;;;1.73;;
76786;SDS011;65739;51.482;5.702;2023-07-13T01:21:23;5.88;;;1.88;;
76786;SDS011;65739;51.482;5.702;2023-07-13T01:23:49;7.85;;;1.80;;
76786;SDS011;65739;51.482;5.702;2023-07-13T01:26:14;5.65;;;1.85;;
76786;SDS011;65739;51.482;5.702;2023-07-13T01:28:40;6.40;;;2.10;;
76786;SDS011;65739;51.482;5.702;2023-07-13T01:31:06;9.70;;;2.10;;
76786;SDS011;65739;51.482;5.702;2023-07-13T01:33:33;8.02;;;1.95;;
76786;SDS011;65739;51.482;5.702;2023-07-13T01:35:59;9.15;;;2.08;;
76786;SDS011;65739;51.482;5.702;2023-07-13T01:38:27;8.95;;;2.38;;
76786;SDS011;65739;51.482;5.702;2023-07-13T01:40:52;6.07;;;2.13;;
76786;SDS011;65739;51.482;5.702;2023-07-13T01:43:19;10.88;;;2.17;;
76786;SDS011;65739;51.482;5.702;2023-07-13T01:45:45;9.70;;;1.85;;
76786;SDS011;65739;51.482;5.702;2023-07-13T01:48:11;10.27;;;2.20;;
76786;SDS011;65739;51.482;5.702;2023-07-13T01:50:37;5.95;;;1.67;;
76786;SDS011;65739;51.482;5.702;2023-07-13T01:53:03;6.32;;;1.90;;
76786;SDS011;65739;51.482;5.702;2023-07-13T01:55:30;6.25;;;2.20;;
76786;SDS011;65739;51.482;5.702;2023-07-13T01:57:56;11.93;;;2.28;;
76786;SDS011;65739;51.482;5.702;2023-07-13T02:00:21;5.90;;;2.00;;
76786;SDS011;65739;51.482;5.702;2023-07-13T02:02:48;10.57;;;2.38;;
76786;SDS011;65739;51.482;5.702;2023-07-13T02:05:14;8.50;;;2.33;;
76786;SDS011;65739;51.482;5.702;2023-07-13T02:07:40;10.40;;;2.20;;
76786;SDS011;65739;51.482;5.702;2023-07-13T02:10:06;11.10;;;1.85;;
76786;SDS011;65739;51.482;5.702;2023-07-13T02:12:33;10.88;;;1.90;;
76786;SDS011;65739;51.482;5.702;2023-07-13T02:14:59;4.45;;;1.70;;
76786;SDS011;65739;51.482;5.702;2023-07-13T02:17:26;6.38;;;1.83;;
76786;SDS011;65739;51.482;5.702;2023-07-13T02:19:52;8.88;;;2.05;;
76786;SDS011;65739;51.482;5.702;2023-07-13T02:22:18;5.88;;;1.77;;
76786;SDS011;65739;51.482;5.702;2023-07-13T02:24:43;8.68;;;2.28;;
76786;SDS011;65739;51.482;5.702;2023-07-13T02:27:09;6.75;;;2.05;;
76786;SDS011;65739;51.482;5.702;2023-07-13T02:29:35;8.38;;;1.60;;
76786;SDS011;65739;51.482;5.702;2023-07-13T02:32:00;9.20;;;1.98;;
76786;SDS011;65739;51.482;5.702;2023-07-13T02:34:26;6.68;;;2.00;;
76786;SDS011;65739;51.482;5.702;2023-07-13T02:36:52;8.15;;;1.88;;
76786;SDS011;65739;51.482;5.702;2023-07-13T02:39:17;8.27;;;2.08;;
76786;SDS011;65739;51.482;5.702;2023-07-13T02:41:43;7.45;;;2.05;;
76786;SDS011;65739;51.482;5.702;2023-07-13T02:44:09;5.50;;;2.22;;
76786;SDS011;65739;51.482;5.702;2023-07-13T02:46:35;8.75;;;1.98;;
76786;SDS011;65739;51.482;5.702;2023-07-13T02:49:02;11.68;;;2.25;;
76786;SDS011;65739;51.482;5.702;2023-07-13T02:51:29;9.43;;;2.30;;
76786;SDS011;65739;51.482;5.702;2023-07-13T02:53:54;7.65;;;2.17;;
76786;SDS011;65739;51.482;5.702;2023-07-13T02:56:24;6.78;;;2.00;;
76786;SDS011;65739;51.482;5.702;2023-07-13T02:58:51;9.85;;;2.10;;
76786;SDS011;65739;51.482;5.702;2023-07-13T03:01:17;5.60;;;1.95;;
76786;SDS011;65739;51.482;5.702;2023-07-13T03:03:44;6.88;;;1.60;;
76786;SDS011;65739;51.482;5.702;2023-07-13T03:06:11;11.00;;;1.77;;
76786;SDS011;65739;51.482;5.702;2023-07-13T03:08:37;7.20;;;1.80;;
76786;SDS011;65739;51.482;5.702;2023-07-13T03:11:04;8.68;;;2.17;;
76786;SDS011;65739;51.482;5.702;2023-07-13T03:13:31;8.70;;;2.40;;
76786;SDS011;65739;51.482;5.702;2023-07-13T03:15:57;7.68;;;2.10;;
76786;SDS011;65739;51.482;5.702;2023-07-13T03:18:22;7.10;;;1.83;;
76786;SDS011;65739;51.482;5.702;2023-07-13T03:20:51;13.05;;;2.60;;
76786;SDS011;65739;51.482;5.702;2023-07-13T03:23:17;6.88;;;1.90;;
76786;SDS011;65739;51.482;5.702;2023-07-13T03:25:43;8.05;;;2.05;;
76786;SDS011;65739;51.482;5.702;2023-07-13T03:28:10;8.43;;;2.35;;
76786;SDS011;65739;51.482;5.702;2023-07-13T03:30:36;6.18;;;1.90;;
76786;SDS011;65739;51.482;5.702;2023-07-13T03:33:02;5.78;;;2.40;;
76786;SDS011;65739;51.482;5.702;2023-07-13T03:35:28;5.43;;;2.28;;
76786;SDS011;65739;51.482;5.702;2023-07-13T03:37:54;9.13;;;2.30;;
76786;SDS011;65739;51.482;5.702;2023-07-13T03:40:19;9.00;;;2.40;;
76786;SDS011;65739;51.482;5.702;2023-07-13T03:42:45;6.97;;;1.95;;
76786;SDS011;65739;51.482;5.702;2023-07-13T03:45:11;6.25;;;2.55;;
76786;SDS011;65739;51.482;5.702;2023-07-13T03:47:37;11.25;;;2.30;;
76786;SDS011;65739;51.482;5.702;2023-07-13T03:50:03;15.45;;;3.33;;
76786;SDS011;65739;51.482;5.702;2023-07-13T03:52:29;8.27;;;2.70;;
76786;SDS011;65739;51.482;5.702;2023-07-13T03:54:54;12.88;;;2.30;;
76786;SDS011;65739;51.482;5.702;2023-07-13T03:57:20;12.52;;;2.63;;
76786;SDS011;65739;51.482;5.702;2023-07-13T03:59:45;8.88;;;2.97;;
76786;SDS011;65739;51.482;5.702;2023-07-13T04:02:11;7.32;;;2.28;;
76786;SDS011;65739;51.482;5.702;2023-07-13T04:04:37;10.68;;;2.90;;
76786;SDS011;65739;51.482;5.702;2023-07-13T04:07:05;10.15;;;2.90;;
76786;SDS011;65739;51.482;5.702;2023-07-13T04:09:33;9.60;;;2.30;;
76786;SDS011;65739;51.482;5.702;2023-07-13T04:11:59;12.60;;;2.58;;
76786;SDS011;65739;51.482;5.702;2023-07-13T04:14:24;7.13;;;2.47;;
76786;SDS011;65739;51.482;5.702;2023-07-13T04:16:50;12.50;;;2.83;;
76786;SDS011;65739;51.482;5.702;2023-07-13T04:19:15;6.75;;;2.30;;
76786;SDS011;65739;51.482;5.702;2023-07-13T04:21:41;10.57;;;2.80;;
76786;SDS011;65739;51.482;5.702;2023-07-13T04:24:06;10.60;;;3.03;;
76786;SDS011;65739;51.482;5.702;2023-07-13T04:26:32;14.18;;;2.88;;
76786;SDS011;65739;51.482;5.702;2023-07-13T04:29:01;11.13;;;3.53;;
76786;SDS011;65739;51.482;5.702;2023-07-13T04:31:28;9.60;;;3.70;;
76786;SDS011;65739;51.482;5.702;2023-07-13T04:33:54;7.43;;;3.08;;
76786;SDS011;65739;51.482;5.702;2023-07-13T04:36:20;11.45;;;3.10;;
76786;SDS011;65739;51.482;5.702;2023-07-13T04:38:46;11.82;;;3.13;;
76786;SDS011;65739;51.482;5.702;2023-07-13T04:41:12;15.40;;;3.25;;
76786;SDS011;65739;51.482;5.702;2023-07-13T04:43:40;10.85;;;2.85;;
76786;SDS011;65739;51.482;5.702;2023-07-13T04:46:07;12.55;;;3.22;;
76786;SDS011;65739;51.482;5.702;2023-07-13T04:48:36;14.52;;;4.00;;
76786;SDS011;65739;51.482;5.702;2023-07-13T04:51:02;13.30;;;3.15;;
76786;SDS011;65739;51.482;5.702;2023-07-13T04:53:28;12.13;;;3.50;;
76786;SDS011;65739;51.482;5.702;2023-07-13T04:55:54;8.10;;;3.17;;
76786;SDS011;65739;51.482;5.702;2023-07-13T04:58:20;10.48;;;3.20;;
76786;SDS011;65739;51.482;5.702;2023-07-13T05:00:46;11.60;;;3.47;;
76786;SDS011;65739;51.482;5.702;2023-07-13T05:03:12;14.00;;;3.50;;
76786;SDS011;65739;51.482;5.702;2023-07-13T05:05:40;12.82;;;3.80;;
76786;SDS011;65739;51.482;5.702;2023-07-13T05:08:05;7.75;;;3.65;;
76786;SDS011;65739;51.482;5.702;2023-07-13T05:10:32;17.83;;;4.15;;
76786;SDS011;65739;51.482;5.702;2023-07-13T05:12:58;16.35;;;3.80;;
76786;SDS011;65739;51.482;5.702;2023-07-13T05:15:23;11.65;;;3.53;;
76786;SDS011;65739;51.482;5.702;2023-07-13T05:17:50;18.40;;;3.95;;
76786;SDS011;65739;51.482;5.702;2023-07-13T05:20:17;14.68;;;4.47;;
76786;SDS011;65739;51.482;5.702;2023-07-13T05:22:43;9.23;;;3.47;;
76786;SDS011;65739;51.482;5.702;2023-07-13T05:25:09;15.70;;;4.32;;
76786;SDS011;65739;51.482;5.702;2023-07-13T05:27:35;10.32;;;4.18;;
76786;SDS011;65739;51.482;5.702;2023-07-13T05:30:02;10.45;;;4.22;;
76786;SDS011;65739;51.482;5.702;2023-07-13T05:32:28;18.73;;;5.07;;
76786;SDS011;65739;51.482;5.702;2023-07-13T05:34:54;13.50;;;4.32;;
76786;SDS011;65739;51.482;5.702;2023-07-13T05:37:19;14.63;;;4.45;;
76786;SDS011;65739;51.482;5.702;2023-07-13T05:39:45;16.13;;;4.75;;
76786;SDS011;65739;51.482;5.702;2023-07-13T05:42:11;16.35;;;4.78;;
76786;SDS011;65739;51.482;5.702;2023-07-13T05:44:36;16.08;;;5.00;;
76786;SDS011;65739;51.482;5.702;2023-07-13T05:47:02;19.13;;;5.15;;
76786;SDS011;65739;51.482;5.702;2023-07-13T05:49:29;16.45;;;4.95;;
76786;SDS011;65739;51.482;5.702;2023-07-13T05:51:55;17.98;;;4.95;;
76786;SDS011;65739;51.482;5.702;2023-07-13T05:54:21;16.63;;;5.65;;
76786;SDS011;65739;51.482;5.702;2023-07-13T05:56:47;19.92;;;5.63;;
76786;SDS011;65739;51.482;5.702;2023-07-13T05:59:12;17.38;;;6.05;;
76786;SDS011;65739;51.482;5.702;2023-07-13T06:01:38;15.70;;;5.55;;
76786;SDS011;65739;51.482;5.702;2023-07-13T06:04:04;18.08;;;5.78;;
76786;SDS011;65739;51.482;5.702;2023-07-13T06:06:29;15.18;;;5.38;;
76786;SDS011;65739;51.482;5.702;2023-07-13T06:08:55;19.75;;;6.32;;
76786;SDS011;65739;51.482;5.702;2023-07-13T06:11:22;16.77;;;5.22;;
76786;SDS011;65739;51.482;5.702;2023-07-13T06:13:50;18.88;;;5.72;;
76786;SDS011;65739;51.482;5.702;2023-07-13T06:16:16;22.15;;;5.82;;
76786;SDS011;65739;51.482;5.702;2023-07-13T06:18:42;20.15;;;5.85;;
76786;SDS011;65739;51.482;5.702;2023-07-13T06:21:13;15.68;;;5.60;;
76786;SDS011;65739;51.482;5.702;2023-07-13T06:23:41;21.65;;;5.57;;
76786;SDS011;65739;51.482;5.702;2023-07-13T06:26:07;17.77;;;5.55;;
76786;SDS011;65739;51.482;5.702;2023-07-13T06:28:33;13.50;;;4.70;;
76786;SDS011;65739;51.482;5.702;2023-07-13T06:31:00;19.55;;;4.60;;
76786;SDS011;65739;51.482;5.702;2023-07-13T06:33:26;17.35;;;5.13;;
76786;SDS011;65739;51.482;5.702;2023-07-13T06:35:51;13.57;;;4.70;;
76786;SDS011;65739;51.482;5.702;2023-07-13T06:38:18;15.18;;;4.65;;
76786;SDS011;65739;51.482;5.702;2023-07-13T06:40:43;16.90;;;5.22;;
76786;SDS011;65739;51.482;5.702;2023-07-13T06:43:09;21.17;;;5.13;;
76786;SDS011;65739;51.482;5.702;2023-07-13T06:45:36;16.33;;;4.90;;
76786;SDS011;65739;51.482;5.702;2023-07-13T06:48:06;20.05;;;5.90;;
76786;SDS011;65739;51.482;5.702;2023-07-13T06:50:33;21.13;;;6.60;;
76786;SDS011;65739;51.482;5.702;2023-07-13T06:52:59;19.08;;;6.03;;
76786;SDS011;65739;51.482;5.702;2023-07-13T06:55:25;22.15;;;6.50;;
76786;SDS011;65739;51.482;5.702;2023-07-13T06:57:51;15.55;;;5.68;;
76786;SDS011;65739;51.482;5.702;2023-07-13T07:00:16;18.05;;;5.80;;
76786;SDS011;65739;51.482;5.702;2023-07-13T07:02:42;13.45;;;5.35;;
76786;SDS011;65739;51.482;5.702;2023-07-13T07:05:08;17.23;;;6.45;;
76786;SDS011;65739;51.482;5.702;2023-07-13T07:07:34;15.05;;;5.93;;
76786;SDS011;65739;51.482;5.702;2023-07-13T07:09:59;18.63;;;5.78;;
76786;SDS011;65739;51.482;5.702;2023-07-13T07:12:25;18.02;;;5.75;;
76786;SDS011;65739;51.482;5.702;2023-07-13T07:14:50;17.48;;;5.55;;
76786;SDS011;65739;51.482;5.702;2023-07-13T07:17:16;18.10;;;6.03;;
76786;SDS011;65739;51.482;5.702;2023-07-13T07:19:42;14.90;;;5.45;;
76786;SDS011;65739;51.482;5.702;2023-07-13T07:22:07;17.02;;;5.55;;
76786;SDS011;65739;51.482;5.702;2023-07-13T07:24:33;23.02;;;5.78;;
76786;SDS011;65739;51.482;5.702;2023-07-13T07:26:58;15.93;;;4.97;;
76786;SDS011;65739;51.482;5.702;2023-07-13T07:29:24;17.83;;;5.32;;
76786;SDS011;65739;51.482;5.702;2023-07-13T07:31:51;18.02;;;4.95;;
76786;SDS011;65739;51.482;5.702;2023-07-13T07:34:17;13.45;;;4.72;;
76786;SDS011;65739;51.482;5.702;2023-07-13T07:36:42;14.68;;;4.35;;
76786;SDS011;65739;51.482;5.702;2023-07-13T07:39:08;14.70;;;4.95;;
76786;SDS011;65739;51.482;5.702;2023-07-13T07:41:34;14.45;;;4.78;;
76786;SDS011;65739;51.482;5.702;2023-07-13T07:43:59;11.57;;;4.88;;
76786;SDS011;65739;51.482;5.702;2023-07-13T07:46:25;14.30;;;4.57;;
76786;SDS011;65739;51.482;5.702;2023-07-13T07:48:50;16.27;;;5.00;;
76786;SDS011;65739;51.482;5.702;2023-07-13T07:51:16;16.23;;;4.28;;
76786;SDS011;65739;51.482;5.702;2023-07-13T07:53:42;17.02;;;4.82;;
76786;SDS011;65739;51.482;5.702;2023-07-13T07:56:07;15.43;;;4.47;;
76786;SDS011;65739;51.482;5.702;2023-07-13T07:58:35;14.70;;;4.70;;
76786;SDS011;65739;51.482;5.702;2023-07-13T08:01:04;18.75;;;4.80;;
76786;SDS011;65739;51.482;5.702;2023-07-13T08:03:31;14.35;;;4.90;;
76786;SDS011;65739;51.482;5.702;2023-07-13T08:05:56;16.25;;;4.97;;
76786;SDS011;65739;51.482;5.702;2023-07-13T08:08:22;11.20;;;4.35;;
76786;SDS011;65739;51.482;5.702;2023-07-13T08:10:48;16.27;;;4.50;;
76786;SDS011;65739;51.482;5.702;2023-07-13T08:13:13;12.75;;;4.70;;
76786;SDS011;65739;51.482;5.702;2023-07-13T08:15:39;16.75;;;4.85;;
76786;SDS011;65739;51.482;5.702;2023-07-13T08:18:05;13.15;;;4.63;;
76786;SDS011;65739;51.482;5.702;2023-07-13T08:20:32;14.75;;;4.10;;
76786;SDS011;65739;51.482;5.702;2023-07-13T08:22:58;13.52;;;4.40;;
76786;SDS011;65739;51.482;5.702;2023-07-13T08:25:24;14.15;;;4.22;;
76786;SDS011;65739;51.482;5.702;2023-07-13T08:27:49;11.50;;;4.20;;
76786;SDS011;65739;51.482;5.702;2023-07-13T08:30:15;8.80;;;3.58;;
76786;SDS011;65739;51.482;5.702;2023-07-13T08:32:41;12.63;;;3.63;;
76786;SDS011;65739;51.482;5.702;2023-07-13T08:35:06;17.08;;;3.97;;
76786;SDS011;65739;51.482;5.702;2023-07-13T08:37:32;12.57;;;3.80;;
76786;SDS011;65739;51.482;5.702;2023-07-13T08:39:58;12.18;;;3.10;;
76786;SDS011;65739;51.482;5.702;2023-07-13T08:47:47;8.80;;;2.80;;
76786;SDS011;65739;51.482;5.702;2023-07-13T08:50:27;12.32;;;3.58;;
76786;SDS011;65739;51.482;5.702;2023-07-13T08:53:00;12.45;;;2.88;;
76786;SDS011;65739;51.482;5.702;2023-07-13T08:55:30;9.80;;;3.33;;
76786;SDS011;65739;51.482;5.702;2023-07-13T08:58:14;10.02;;;3.05;;
76786;SDS011;65739;51.482;5.702;2023-07-13T09:00:43;7.20;;;2.83;;
76786;SDS011;65739;51.482;5.702;2023-07-13T09:03:14;12.00;;;3.05;;
76786;SDS011;65739;51.482;5.702;2023-07-13T09:05:49;10.82;;;3.80;;
76786;SDS011;65739;51.482;5.702;2023-07-13T09:08:38;6.90;;;2.58;;
76786;SDS011;65739;51.482;5.702;2023-07-13T09:14:37;14.05;;;2.85;;
76786;SDS011;65739;51.482;5.702;2023-07-13T09:17:30;8.77;;;2.38;;
76786;SDS011;65739;51.482;5.702;2023-07-13T09:20:04;10.27;;;2.42;;
76786;SDS011;65739;51.482;5.702;2023-07-13T09:22:41;9.10;;;2.60;;
76786;SDS011;65739;51.482;5.702;2023-07-13T09:33:21;8.77;;;2.42;;
76786;SDS011;65739;51.482;5.702;2023-07-13T09:35:48;6.35;;;2.03;;
76786;SDS011;65739;51.482;5.702;2023-07-13T09:38:15;8.15;;;2.00;;
76786;SDS011;65739;51.482;5.702;2023-07-13T09:40:46;5.72;;;2.28;;
76786;SDS011;65739;51.482;5.702;2023-07-13T09:43:34;7.22;;;2.25;;
76786;SDS011;65739;51.482;5.702;2023-07-13T09:46:00;9.55;;;2.45;;
76786;SDS011;65739;51.482;5.702;2023-07-13T09:48:26;11.45;;;2.05;;
76786;SDS011;65739;51.482;5.702;2023-07-13T09:51:14;8.80;;;2.60;;
76786;SDS011;65739;51.482;5.702;2023-07-13T09:53:41;8.18;;;2.25;;
76786;SDS011;65739;51.482;5.702;2023-07-13T09:56:19;5.28;;;1.92;;
76786;SDS011;65739;51.482;5.702;2023-07-13T09:58:54;7.70;;;2.05;;
76786;SDS011;65739;51.482;5.702;2023-07-13T10:01:34;7.50;;;1.75;;
76786;SDS011;65739;51.482;5.702;2023-07-13T10:04:12;6.38;;;1.45;;
76786;SDS011;65739;51.482;5.702;2023-07-13T10:06:41;6.80;;;1.90;;
76786;SDS011;65739;51.482;5.702;2023-07-13T10:09:08;7.38;;;2.05;;
76786;SDS011;65739;51.482;5.702;2023-07-13T10:11:34;5.25;;;1.70;;
76786;SDS011;65739;51.482;5.702;2023-07-13T10:14:13;7.07;;;2.42;;
76786;SDS011;65739;51.482;5.702;2023-07-13T10:16:41;6.88;;;2.40;;
76786;SDS011;65739;51.482;5.702;2023-07-13T10:19:13;5.40;;;1.95;;
76786;SDS011;65739;51.482;5.702;2023-07-13T10:21:56;7.78;;;2.30;;
76786;SDS011;65739;51.482;5.702;2023-07-13T10:24:27;9.00;;;2.10;;
76786;SDS011;65739;51.482;5.702;2023-07-13T10:29:35;10.40;;;2.25;;
76786;SDS011;65739;51.482;5.702;2023-07-13T10:32:15;6.38;;;1.90;;
76786;SDS011;65739;51.482;5.702;2023-07-13T10:34:41;8.30;;;1.92;;
76786;SDS011;65739;51.482;5.702;2023-07-13T10:37:16;6.75;;;2.05;;
76786;SDS011;65739;51.482;5.702;2023-07-13T10:39:50;5.22;;;1.83;;
76786;SDS011;65739;51.482;5.702;2023-07-13T10:42:24;7.68;;;1.95;;
76786;SDS011;65739;51.482;5.702;2023-07-13T10:44:51;6.85;;;2.08;;
76786;SDS011;65739;51.482;5.702;2023-07-13T10:47:16;4.28;;;1.60;;
76786;SDS011;65739;51.482;5.702;2023-07-13T10:49:43;9.43;;;2.25;;
76786;SDS011;65739;51.482;5.702;2023-07-13T10:58:35;4.88;;;1.83;;
76786;SDS011;65739;51.482;5.702;2023-07-13T11:03:32;7.10;;;1.80;;
76786;SDS011;65739;51.482;5.702;2023-07-13T11:06:11;5.80;;;1.85;;
76786;SDS011;65739;51.482;5.702;2023-07-13T11:11:31;7.00;;;1.77;;
76786;SDS011;65739;51.482;5.702;2023-07-13T11:14:00;7.38;;;1.75;;
76786;SDS011;65739;51.482;5.702;2023-07-13T11:21:30;7.10;;;2.42;;
76786;SDS011;65739;51.482;5.702;2023-07-13T11:24:16;11.27;;;2.28;;
76786;SDS011;65739;51.482;5.702;2023-07-13T11:31:42;7.85;;;2.17;;
76786;SDS011;65739;51.482;5.702;2023-07-13T11:34:16;4.95;;;2.55;;
76786;SDS011;65739;51.482;5.702;2023-07-13T11:36:46;4.20;;;1.88;;
76786;SDS011;65739;51.482;5.702;2023-07-13T11:42:00;6.90;;;2.33;;
76786;SDS011;65739;51.482;5.702;2023-07-13T11:44:29;8.75;;;2.03;;
76786;SDS011;65739;51.482;5.702;2023-07-13T11:46:57;7.72;;;2.03;;
76786;SDS011;65739;51.482;5.702;2023-07-13T11:49:29;7.88;;;2.53;;
76786;SDS011;65739;51.482;5.702;2023-07-13T11:51:56;7.30;;;2.20;;
76786;SDS011;65739;51.482;5.702;2023-07-13T11:54:27;8.52;;;2.60;;
76786;SDS011;65739;51.482;5.702;2023-07-13T11:57:02;6.68;;;2.10;;
76786;SDS011;65739;51.482;5.702;2023-07-13T11:59:39;6.43;;;1.73;;
76786;SDS011;65739;51.482;5.702;2023-07-13T12:02:08;9.25;;;2.08;;
76786;SDS011;65739;51.482;5.702;2023-07-13T12:04:41;6.18;;;2.03;;
76786;SDS011;65739;51.482;5.702;2023-07-13T12:07:14;5.20;;;1.90;;
76786;SDS011;65739;51.482;5.702;2023-07-13T12:09:41;7.28;;;2.20;;
76786;SDS011;65739;51.482;5.702;2023-07-13T12:12:11;3.97;;;1.80;;
76786;SDS011;65739;51.482;5.702;2023-07-13T12:17:08;7.65;;;2.10;;
76786;SDS011;65739;51.482;5.702;2023-07-13T12:19:41;9.32;;;2.00;;
76786;SDS011;65739;51.482;5.702;2023-07-13T12:22:08;4.72;;;1.92;;
76786;SDS011;65739;51.482;5.702;2023-07-13T12:24:36;6.37;;;2.00;;
76786;SDS011;65739;51.482;5.702;2023-07-13T12:27:03;5.85;;;1.98;;
76786;SDS011;65739;51.482;5.702;2023-07-13T12:29:31;11.55;;;2.22;;
76786;SDS011;65739;51.482;5.702;2023-07-13T12:31:57;10.05;;;2.78;;
76786;SDS011;65739;51.482;5.702;2023-07-13T12:34:24;7.07;;;2.67;;
76786;SDS011;65739;51.482;5.702;2023-07-13T12:37:01;8.75;;;2.67;;
76786;SDS011;65739;51.482;5.702;2023-07-13T12:39:34;7.03;;;2.53;;
76786;SDS011;65739;51.482;5.702;2023-07-13T12:44:46;9.40;;;2.70;;
76786;SDS011;65739;51.482;5.702;2023-07-13T12:47:13;11.20;;;2.83;;
76786;SDS011;65739;51.482;5.702;2023-07-13T12:49:42;6.85;;;2.50;;
76786;SDS011;65739;51.482;5.702;2023-07-13T12:52:14;5.85;;;2.60;;
76786;SDS011;65739;51.482;5.702;2023-07-13T12:54:53;4.15;;;2.42;;
76786;SDS011;65739;51.482;5.702;2023-07-13T12:57:24;10.18;;;2.30;;
76786;SDS011;65739;51.482;5.702;2023-07-13T12:59:54;6.88;;;2.65;;
76786;SDS011;65739;51.482;5.702;2023-07-13T13:02:30;10.45;;;2.75;;
76786;SDS011;65739;51.482;5.702;2023-07-13T13:04:59;9.18;;;2.90;;
76786;SDS011;65739;51.482;5.702;2023-07-13T13:07:26;8.40;;;2.63;;
76786;SDS011;65739;51.482;5.702;2023-07-13T13:09:52;8.50;;;2.65;;
76786;SDS011;65739;51.482;5.702;2023-07-13T13:12:19;6.28;;;2.60;;
76786;SDS011;65739;51.482;5.702;2023-07-13T13:14:45;8.40;;;2.30;;
76786;SDS011;65739;51.482;5.702;2023-07-13T13:17:21;3.50;;;1.73;;
76786;SDS011;65739;51.482;5.702;2023-07-13T13:19:50;5.32;;;1.70;;
76786;SDS011;65739;51.482;5.702;2023-07-13T13:22:19;6.90;;;1.50;;
76786;SDS011;65739;51.482;5.702;2023-07-13T13:24:45;1.45;;;1.23;;
76786;SDS011;65739;51.482;5.702;2023-07-13T13:27:21;5.80;;;1.77;;
76786;SDS011;65739;51.482;5.702;2023-07-13T13:29:48;2.78;;;1.40;;
76786;SDS011;65739;51.482;5.702;2023-07-13T13:32:17;4.85;;;1.55;;
76786;SDS011;65739;51.482;5.702;2023-07-13T13:34:43;2.92;;;1.48;;
76786;SDS011;65739;51.482;5.702;2023-07-13T13:37:16;4.35;;;1.33;;
76786;SDS011;65739;51.482;5.702;2023-07-13T13:39:48;3.50;;;1.45;;
76786;SDS011;65739;51.482;5.702;2023-07-13T13:42:15;3.42;;;1.83;;
76786;SDS011;65739;51.482;5.702;2023-07-13T13:44:41;4.75;;;1.85;;
76786;SDS011;65739;51.482;5.702;2023-07-13T13:47:11;5.13;;;2.10;;
76786;SDS011;65739;51.482;5.702;2023-07-13T13:49:49;4.70;;;2.13;;
76786;SDS011;65739;51.482;5.702;2023-07-13T13:52:14;10.00;;;2.42;;
76786;SDS011;65739;51.482;5.702;2023-07-13T13:54:40;6.95;;;2.22;;
76786;SDS011;65739;51.482;5.702;2023-07-13T13:57:06;8.35;;;2.33;;
76786;SDS011;65739;51.482;5.702;2023-07-13T13:59:33;3.80;;;2.22;;
76786;SDS011;65739;51.482;5.702;2023-07-13T14:02:07;7.18;;;2.53;;
76786;SDS011;65739;51.482;5.702;2023-07-13T14:04:49;7.65;;;2.40;;
76786;SDS011;65739;51.482;5.702;2023-07-13T14:07:19;7.65;;;2.55;;
76786;SDS011;65739;51.482;5.702;2023-07-13T14:09:45;10.20;;;2.50;;
76786;SDS011;65739;51.482;5.702;2023-07-13T14:12:10;6.47;;;2.40;;
76786;SDS011;65739;51.482;5.702;2023-07-13T14:14:36;6.55;;;2.08;;
76786;SDS011;65739;51.482;5.702;2023-07-13T14:17:03;5.93;;;2.40;;
76786;SDS011;65739;51.482;5.702;2023-07-13T14:19:28;5.15;;;2.25;;
76786;SDS011;65739;51.482;5.702;2023-07-13T14:21:54;6.00;;;2.00;;
76786;SDS011;65739;51.482;5.702;2023-07-13T14:24:20;6.53;;;1.80;;
76786;SDS011;65739;51.482;5.702;2023-07-13T14:26:46;4.55;;;2.10;;
76786;SDS011;65739;51.482;5.702;2023-07-13T14:29:13;5.35;;;2.10;;
76786;SDS011;65739;51.482;5.702;2023-07-13T14:31:41;4.03;;;1.90;;
76786;SDS011;65739;51.482;5.702;2023-07-13T14:34:07;4.57;;;1.90;;
76786;SDS011;65739;51.482;5.702;2023-07-13T14:36:36;4.63;;;1.70;;
76786;SDS011;65739;51.482;5.702;2023-07-13T14:39:12;4.32;;;1.85;;
76786;SDS011;65739;51.482;5.702;2023-07-13T14:41:40;6.88;;;2.00;;
76786;SDS011;65739;51.482;5.702;2023-07-13T14:44:12;4.55;;;2.08;;
76786;SDS011;65739;51.482;5.702;2023-07-13T14:46:39;2.75;;;1.85;;
76786;SDS011;65739;51.482;5.702;2023-07-13T14:49:09;1.98;;;1.70;;
76786;SDS011;65739;51.482;5.702;2023-07-13T14:51:45;6.68;;;1.70;;
76786;SDS011;65739;51.482;5.702;2023-07-13T14:54:11;1.75;;;1.60;;
76786;SDS011;65739;51.482;5.702;2023-07-13T14:56:37;3.25;;;1.45;;
76786;SDS011;65739;51.482;5.702;2023-07-13T14:59:02;2.90;;;1.55;;
76786;SDS011;65739;51.482;5.702;2023-07-13T15:01:29;3.83;;;1.52;;
76786;SDS011;65739;51.482;5.702;2023-07-13T15:03:56;2.72;;;1.35;;
76786;SDS011;65739;51.482;5.702;2023-07-13T15:06:23;3.33;;;1.52;;
76786;SDS011;65739;51.482;5.702;2023-07-13T15:08:49;1.70;;;1.00;;
76786;SDS011;65739;51.482;5.702;2023-07-13T15:11:15;1.30;;;1.20;;
76786;SDS011;65739;51.482;5.702;2023-07-13T15:13:41;2.15;;;1.23;;
76786;SDS011;65739;51.482;5.702;2023-07-13T15:16:21;2.35;;;1.17;;
76786;SDS011;65739;51.482;5.702;2023-07-13T15:18:49;2.03;;;1.05;;
76786;SDS011;65739;51.482;5.702;2023-07-13T15:21:21;4.55;;;1.08;;
76786;SDS011;65739;51.482;5.702;2023-07-13T15:23:49;2.85;;;1.25;;
76786;SDS011;65739;51.482;5.702;2023-07-13T15:26:16;1.88;;;1.20;;
76786;SDS011;65739;51.482;5.702;2023-07-13T15:28:43;3.92;;;1.45;;
76786;SDS011;65739;51.482;5.702;2023-07-13T15:31:24;2.05;;;0.95;;
76786;SDS011;65739;51.482;5.702;2023-07-13T15:33:54;1.85;;;1.10;;
76786;SDS011;65739;51.482;5.702;2023-07-13T15:36:22;2.38;;;1.10;;
76786;SDS011;65739;51.482;5.702;2023-07-13T15:38:51;2.30;;;1.40;;